CMB855 Details

Departure: Guam International Airport (PGUM)
Arrival: Daniel K Inouye International Airport (PHNL) at N/A
Route: DEWSS A450 NATIE A450 BRIUN NONNI BOOKE BOOKE8
Notes: USTRANSCOM CONTRACT FLIGHT | PAYLOAD RESTRICTED | ETOPS


Current Weather Information
PGUM 191554Z 00000KT 10SM FEW042 SCT049 BKN060 25/24 A2981 RMK AO2 RAE01 SLP086 P0000 T02500239
PHNL 191553Z 00000KT 10SM FEW025 24/19 A2996 RMK AO2 SLP144 T02440194